sensor_id;sensor_type;location;lat;lon;timestamp;pressure;altitude;pressure_sealevel;temperature;humidity
41898;BME280;27576;53.366;-1.498;2023-04-16T00:02:05;101112.84;;;7.51;100.00
41898;BME280;27576;53.366;-1.498;2023-04-16T00:04:31;101080.34;;;7.32;100.00
41898;BME280;27576;53.366;-1.498;2023-04-16T00:06:56;101090.06;;;7.39;100.00
41898;BME280;27576;53.366;-1.498;2023-04-16T00:09:22;101110.34;;;7.54;100.00
41898;BME280;27576;53.366;-1.498;2023-04-16T00:11:48;101110.31;;;7.52;100.00
41898;BME280;27576;53.366;-1.498;2023-04-16T00:14:13;101079.53;;;7.33;100.00
41898;BME280;27576;53.366;-1.498;2023-04-16T00:16:38;101083.81;;;7.32;100.00
41898;BME280;27576;53.366;-1.498;2023-04-16T00:19:04;101074.84;;;7.23;100.00
41898;BME280;27576;53.366;-1.498;2023-04-16T00:21:29;101104.75;;;7.42;100.00
41898;BME280;27576;53.366;-1.498;2023-04-16T00:23:55;101116.03;;;7.44;100.00
41898;BME280;27576;53.366;-1.498;2023-04-16T00:26:21;101102.06;;;7.38;100.00
41898;BME280;27576;53.366;-1.498;2023-04-16T00:28:46;101095.13;;;7.36;100.00
41898;BME280;27576;53.366;-1.498;2023-04-16T00:31:11;101109.03;;;7.41;100.00
41898;BME280;27576;53.366;-1.498;2023-04-16T00:33:37;101083.47;;;7.23;100.00
41898;BME280;27576;53.366;-1.498;2023-04-16T00:36:02;101058.88;;;7.09;100.00
41898;BME280;27576;53.366;-1.498;2023-04-16T00:38:28;101111.56;;;7.40;100.00
41898;BME280;27576;53.366;-1.498;2023-04-16T00:40:55;101059.09;;;7.15;100.00
41898;BME280;27576;53.366;-1.498;2023-04-16T00:43:24;101047.63;;;7.07;100.00
41898;BME280;27576;53.366;-1.498;2023-04-16T00:45:51;101091.53;;;7.32;100.00
41898;BME280;27576;53.366;-1.498;2023-04-16T00:48:17;101104.75;;;7.42;100.00
41898;BME280;27576;53.366;-1.498;2023-04-16T00:50:43;101077.41;;;7.23;100.00
41898;BME280;27576;53.366;-1.498;2023-04-16T00:53:08;101075.66;;;7.22;100.00
41898;BME280;27576;53.366;-1.498;2023-04-16T00:55:33;101079.94;;;7.21;100.00
41898;BME280;27576;53.366;-1.498;2023-04-16T00:57:59;101062.66;;;7.19;100.00
41898;BME280;27576;53.366;-1.498;2023-04-16T01:00:24;101092.28;;;7.30;100.00
41898;BME280;27576;53.366;-1.498;2023-04-16T01:02:52;101101.19;;;7.38;100.00
41898;BME280;27576;53.366;-1.498;2023-04-16T01:05:18;101070.47;;;7.20;100.00
41898;BME280;27576;53.366;-1.498;2023-04-16T01:07:44;101094.31;;;7.38;100.00
41898;BME280;27576;53.366;-1.498;2023-04-16T01:10:10;101097.81;;;7.39;100.00
41898;BME280;27576;53.366;-1.498;2023-04-16T01:12:35;101061.78;;;7.18;100.00
41898;BME280;27576;53.366;-1.498;2023-04-16T01:15:00;101076.53;;;7.22;100.00
41898;BME280;27576;53.366;-1.498;2023-04-16T01:17:26;101083.56;;;7.26;100.00
41898;BME280;27576;53.366;-1.498;2023-04-16T01:19:51;101081.81;;;7.25;100.00
41898;BME280;27576;53.366;-1.498;2023-04-16T01:22:16;101051.28;;;7.12;100.00
41898;BME280;27576;53.366;-1.498;2023-04-16T01:24:42;101062.44;;;7.12;100.00
41898;BME280;27576;53.366;-1.498;2023-04-16T01:27:07;101059.88;;;7.12;100.00
41898;BME280;27576;53.366;-1.498;2023-04-16T01:29:32;101050.31;;;7.10;100.00
41898;BME280;27576;53.366;-1.498;2023-04-16T01:31:59;101064.44;;;7.20;100.00
41898;BME280;27576;53.366;-1.498;2023-04-16T01:34:24;101068.78;;;7.21;100.00
41898;BME280;27576;53.366;-1.498;2023-04-16T01:36:50;101077.34;;;7.20;100.00
41898;BME280;27576;53.366;-1.498;2023-04-16T01:39:16;101074.78;;;7.21;100.00
41898;BME280;27576;53.366;-1.498;2023-04-16T01:41:43;101069.53;;;7.18;100.00
41898;BME280;27576;53.366;-1.498;2023-04-16T01:44:08;101075.66;;;7.22;100.00
41898;BME280;27576;53.366;-1.498;2023-04-16T01:46:34;101082.66;;;7.24;100.00
41898;BME280;27576;53.366;-1.498;2023-04-16T01:49:00;101082.66;;;7.24;100.00
41898;BME280;27576;53.366;-1.498;2023-04-16T01:51:26;101087.09;;;7.28;100.00
41898;BME280;27576;53.366;-1.498;2023-04-16T01:53:52;101065.06;;;7.14;100.00
41898;BME280;27576;53.366;-1.498;2023-04-16T01:56:17;101039.72;;;7.02;100.00
41898;BME280;27576;53.366;-1.498;2023-04-16T01:58:43;101025.75;;;6.96;100.00
41898;BME280;27576;53.366;-1.498;2023-04-16T02:01:10;101032.88;;;7.03;100.00
41898;BME280;27576;53.366;-1.498;2023-04-16T02:03:35;101031.06;;;7.00;100.00
41898;BME280;27576;53.366;-1.498;2023-04-16T02:06:01;101056.50;;;7.15;100.00
41898;BME280;27576;53.366;-1.498;2023-04-16T02:08:26;101081.94;;;7.28;100.00
41898;BME280;27576;53.366;-1.498;2023-04-16T02:10:52;101083.56;;;7.26;100.00
41898;BME280;27576;53.366;-1.498;2023-04-16T02:13:17;101073.97;;;7.22;100.00
41898;BME280;27576;53.366;-1.498;2023-04-16T02:15:46;101080.06;;;7.24;100.00
41898;BME280;27576;53.366;-1.498;2023-04-16T02:18:12;101074.03;;;7.24;100.00
41898;BME280;27576;53.366;-1.498;2023-04-16T02:20:42;101080.94;;;7.25;100.00
41898;BME280;27576;53.366;-1.498;2023-04-16T02:23:08;101069.81;;;7.26;100.00
41898;BME280;27576;53.366;-1.498;2023-04-16T02:25:41;101071.56;;;7.27;100.00
41898;BME280;27576;53.366;-1.498;2023-04-16T02:28:08;101036.50;;;7.08;100.00
41898;BME280;27576;53.366;-1.498;2023-04-16T02:30:37;101044.25;;;7.08;100.00
41898;BME280;27576;53.366;-1.498;2023-04-16T02:33:03;101066.34;;;7.25;100.00
41898;BME280;27576;53.366;-1.498;2023-04-16T02:35:33;101066.34;;;7.25;100.00
41898;BME280;27576;53.366;-1.498;2023-04-16T02:37:59;101063.78;;;7.25;100.00
41898;BME280;27576;53.366;-1.498;2023-04-16T02:40:25;101064.66;;;7.26;100.00
41898;BME280;27576;53.366;-1.498;2023-04-16T02:42:51;101061.31;;;7.28;100.00
41898;BME280;27576;53.366;-1.498;2023-04-16T02:45:17;101027.28;;;7.14;100.00
41898;BME280;27576;53.366;-1.498;2023-04-16T02:47:42;101057.06;;;7.30;100.00
41898;BME280;27576;53.366;-1.498;2023-04-16T02:50:08;101005.47;;;7.05;100.00
41898;BME280;27576;53.366;-1.498;2023-04-16T02:52:33;101013.22;;;7.05;100.00
41898;BME280;27576;53.366;-1.498;2023-04-16T02:54:59;101038.94;;;7.27;100.00
41898;BME280;27576;53.366;-1.498;2023-04-16T02:57:24;101047.72;;;7.32;100.00
41898;BME280;27576;53.366;-1.498;2023-04-16T02:59:50;101017.22;;;7.21;100.00
41898;BME280;27576;53.366;-1.498;2023-04-16T03:02:15;101021.81;;;7.29;100.00
41898;BME280;27576;53.366;-1.498;2023-04-16T03:04:41;101021.69;;;7.26;100.00
41898;BME280;27576;53.366;-1.498;2023-04-16T03:07:06;101034.75;;;7.31;100.00
41898;BME280;27576;53.366;-1.498;2023-04-16T03:09:33;101033.88;;;7.30;100.00
41898;BME280;27576;53.366;-1.498;2023-04-16T03:11:58;101043.59;;;7.37;100.00
41898;BME280;27576;53.366;-1.498;2023-04-16T03:14:24;101021.66;;;7.25;100.00
41898;BME280;27576;53.366;-1.498;2023-04-16T03:16:49;101035.59;;;7.30;100.00
41898;BME280;27576;53.366;-1.498;2023-04-16T03:19:14;101028.72;;;7.30;100.00
41898;BME280;27576;53.366;-1.498;2023-04-16T03:21:40;101033.88;;;7.30;100.00
41898;BME280;27576;53.366;-1.498;2023-04-16T03:24:05;101023.47;;;7.27;100.00
41898;BME280;27576;53.366;-1.498;2023-04-16T03:26:31;100985.78;;;7.07;100.00
41898;BME280;27576;53.366;-1.498;2023-04-16T03:28:56;101038.22;;;7.31;100.00
41898;BME280;27576;53.366;-1.498;2023-04-16T03:31:23;101014.69;;;7.22;100.00
41898;BME280;27576;53.366;-1.498;2023-04-16T03:33:48;101005.91;;;7.17;100.00
41898;BME280;27576;53.366;-1.498;2023-04-16T03:36:14;101005.91;;;7.17;100.00
41898;BME280;27576;53.366;-1.498;2023-04-16T03:38:39;100990.16;;;7.09;100.00
41898;BME280;27576;53.366;-1.498;2023-04-16T03:41:05;101012.88;;;7.20;100.00
41898;BME280;27576;53.366;-1.498;2023-04-16T03:43:30;101034.06;;;7.35;100.00
41898;BME280;27576;53.366;-1.498;2023-04-16T03:45:55;101006.88;;;7.19;100.00
41898;BME280;27576;53.366;-1.498;2023-04-16T03:48:21;100992.00;;;7.12;100.00
41898;BME280;27576;53.366;-1.498;2023-04-16T03:50:46;101028.91;;;7.35;100.00
41898;BME280;27576;53.366;-1.498;2023-04-16T03:53:12;100980.81;;;7.11;100.00
41898;BME280;27576;53.366;-1.498;2023-04-16T03:55:39;101022.06;;;7.35;100.00
41898;BME280;27576;53.366;-1.498;2023-04-16T03:58:04;100979.81;;;7.08;100.00
41898;BME280;27576;53.366;-1.498;2023-04-16T04:00:30;101020.38;;;7.37;100.00
41898;BME280;27576;53.366;-1.498;2023-04-16T04:02:55;101020.38;;;7.37;100.00
41898;BME280;27576;53.366;-1.498;2023-04-16T04:05:21;100996.59;;;7.21;100.00
41898;BME280;27576;53.366;-1.498;2023-04-16T04:07:46;101000.19;;;7.26;100.00
41898;BME280;27576;53.366;-1.498;2023-04-16T04:10:11;100976.47;;;7.10;100.00
41898;BME280;27576;53.366;-1.498;2023-04-16T04:12:37;100998.50;;;7.26;100.00
41898;BME280;27576;53.366;-1.498;2023-04-16T04:15:02;101004.59;;;7.28;100.00
41898;BME280;27576;53.366;-1.498;2023-04-16T04:17:28;100997.78;;;7.30;100.00
41898;BME280;27576;53.366;-1.498;2023-04-16T04:19:53;101020.72;;;7.47;100.00
41898;BME280;27576;53.366;-1.498;2023-04-16T04:22:18;100977.59;;;7.19;100.00
41898;BME280;27576;53.366;-1.498;2023-04-16T04:24:44;100978.81;;;7.28;100.00
41898;BME280;27576;53.366;-1.498;2023-04-16T04:27:09;100983.19;;;7.31;100.00
41898;BME280;27576;53.366;-1.498;2023-04-16T04:29:34;101017.44;;;7.51;100.00
41898;BME280;27576;53.366;-1.498;2023-04-16T04:32:00;101020.06;;;7.52;100.00
41898;BME280;27576;53.366;-1.498;2023-04-16T04:34:25;101023.56;;;7.54;100.00
41898;BME280;27576;53.366;-1.498;2023-04-16T04:36:51;101019.19;;;7.52;100.00
41898;BME280;27576;53.366;-1.498;2023-04-16T04:39:16;100981.56;;;7.33;100.00
41898;BME280;27576;53.366;-1.498;2023-04-16T04:41:41;100978.22;;;7.35;100.00
41898;BME280;27576;53.366;-1.498;2023-04-16T04:44:07;101000.00;;;7.44;100.00
41898;BME280;27576;53.366;-1.498;2023-04-16T04:46:32;100982.44;;;7.33;100.00
41898;BME280;27576;53.366;-1.498;2023-04-16T04:48:58;100989.34;;;7.34;100.00
41898;BME280;27576;53.366;-1.498;2023-04-16T04:51:23;101006.91;;;7.45;100.00
41898;BME280;27576;53.366;-1.498;2023-04-16T04:53:48;100987.47;;;7.30;100.00
41898;BME280;27576;53.366;-1.498;2023-04-16T04:56:14;101020.81;;;7.50;100.00
41898;BME280;27576;53.366;-1.498;2023-04-16T04:58:40;101025.19;;;7.51;100.00
41898;BME280;27576;53.366;-1.498;2023-04-16T05:01:05;101006.59;;;7.35;100.00
41898;BME280;27576;53.366;-1.498;2023-04-16T05:03:31;101020.72;;;7.47;100.00
41898;BME280;27576;53.366;-1.498;2023-04-16T05:05:56;101024.97;;;7.46;100.00
41898;BME280;27576;53.366;-1.498;2023-04-16T05:08:21;100992.44;;;7.24;100.00
41898;BME280;27576;53.366;-1.498;2023-04-16T05:10:47;101014.34;;;7.37;100.00
41898;BME280;27576;53.366;-1.498;2023-04-16T05:13:12;101017.94;;;7.41;100.00
41898;BME280;27576;53.366;-1.498;2023-04-16T05:15:38;101011.75;;;7.35;100.00
41898;BME280;27576;53.366;-1.498;2023-04-16T05:18:03;101002.94;;;7.30;100.00
41898;BME280;27576;53.366;-1.498;2023-04-16T05:20:28;101001.19;;;7.29;100.00
41898;BME280;27576;53.366;-1.498;2023-04-16T05:22:54;100979.19;;;7.15;100.00
41898;BME280;27576;53.366;-1.498;2023-04-16T05:25:20;101004.72;;;7.31;100.00
41898;BME280;27576;53.366;-1.498;2023-04-16T05:27:45;101008.00;;;7.27;100.00
41898;BME280;27576;53.366;-1.498;2023-04-16T05:30:11;101009.88;;;7.31;100.00
41898;BME280;27576;53.366;-1.498;2023-04-16T05:32:37;101006.22;;;7.26;100.00
41898;BME280;27576;53.366;-1.498;2023-04-16T05:35:03;101042.13;;;7.44;100.00
41898;BME280;27576;53.366;-1.498;2023-04-16T05:37:29;101043.00;;;7.45;100.00
41898;BME280;27576;53.366;-1.498;2023-04-16T05:39:54;101019.34;;;7.32;100.00
41898;BME280;27576;53.366;-1.498;2023-04-16T05:42:20;101038.56;;;7.41;100.00
41898;BME280;27576;53.366;-1.498;2023-04-16T05:44:45;101050.84;;;7.48;100.00
41898;BME280;27576;53.366;-1.498;2023-04-16T05:47:10;101038.50;;;7.39;100.00
41898;BME280;27576;53.366;-1.498;2023-04-16T05:49:36;101025.44;;;7.34;100.00
41898;BME280;27576;53.366;-1.498;2023-04-16T05:52:03;101050.84;;;7.48;100.00
41898;BME280;27576;53.366;-1.498;2023-04-16T05:54:28;101056.16;;;7.52;100.00
41898;BME280;27576;53.366;-1.498;2023-04-16T05:56:53;101022.06;;;7.35;100.00
41898;BME280;27576;53.366;-1.498;2023-04-16T05:59:19;101036.88;;;7.43;100.00
41898;BME280;27576;53.366;-1.498;2023-04-16T06:01:44;101034.31;;;7.43;100.00
41898;BME280;27576;53.366;-1.498;2023-04-16T06:04:10;101056.31;;;7.57;100.00
41898;BME280;27576;53.366;-1.498;2023-04-16T06:06:35;101022.94;;;7.36;100.00
41898;BME280;27576;53.366;-1.498;2023-04-16T06:09:02;101035.28;;;7.46;100.00
41898;BME280;27576;53.366;-1.498;2023-04-16T06:11:28;101028.34;;;7.44;100.00
41898;BME280;27576;53.366;-1.498;2023-04-16T06:13:54;101003.78;;;7.29;100.00
41898;BME280;27576;53.366;-1.498;2023-04-16T06:16:20;101026.75;;;7.47;100.00
41898;BME280;27576;53.366;-1.498;2023-04-16T06:18:45;101038.16;;;7.54;100.00
41898;BME280;27576;53.366;-1.498;2023-04-16T06:21:11;101066.47;;;7.76;100.00
41898;BME280;27576;53.366;-1.498;2023-04-16T06:23:36;101076.22;;;7.85;100.00
41898;BME280;27576;53.366;-1.498;2023-04-16T06:26:04;101053.97;;;7.88;100.00
41898;BME280;27576;53.366;-1.498;2023-04-16T06:28:30;101039.44;;;7.91;100.00
41898;BME280;27576;53.366;-1.498;2023-04-16T06:30:56;101067.28;;;8.26;100.00
41898;BME280;27576;53.366;-1.498;2023-04-16T06:33:21;101036.72;;;8.13;100.00
41898;BME280;27576;53.366;-1.498;2023-04-16T06:35:47;101060.16;;;8.45;100.00
41898;BME280;27576;53.366;-1.498;2023-04-16T06:38:13;101051.78;;;8.52;100.00
41898;BME280;27576;53.366;-1.498;2023-04-16T06:40:38;101055.78;;;8.69;100.00
41898;BME280;27576;53.366;-1.498;2023-04-16T06:43:04;101065.00;;;8.90;100.00
41898;BME280;27576;53.366;-1.498;2023-04-16T06:45:29;101049.50;;;8.90;100.00
41898;BME280;27576;53.366;-1.498;2023-04-16T06:47:55;100981.28;;;8.56;100.00
41898;BME280;27576;53.366;-1.498;2023-04-16T06:50:23;101066.66;;;9.16;100.00
41898;BME280;27576;53.366;-1.498;2023-04-16T06:52:48;101049.38;;;9.15;100.00
41898;BME280;27576;53.366;-1.498;2023-04-16T06:55:14;101047.00;;;9.23;100.00
41898;BME280;27576;53.366;-1.498;2023-04-16T06:57:40;101058.66;;;9.39;100.00
41898;BME280;27576;53.366;-1.498;2023-04-16T07:00:06;101051.94;;;9.45;100.00
41898;BME280;27576;53.366;-1.498;2023-04-16T07:02:31;101070.47;;;9.61;100.00
41898;BME280;27576;53.366;-1.498;2023-04-16T07:04:56;101052.13;;;9.51;100.00
41898;BME280;27576;53.366;-1.498;2023-04-16T07:07:22;100961.97;;;9.02;100.00
41898;BME280;27576;53.366;-1.498;2023-04-16T07:09:47;101065.41;;;9.64;100.00
41898;BME280;27576;53.366;-1.498;2023-04-16T07:12:12;101094.34;;;9.82;100.00
41898;BME280;27576;53.366;-1.498;2023-04-16T07:14:38;101078.59;;;9.74;100.00
41898;BME280;27576;53.366;-1.498;2023-04-16T07:17:03;101076.19;;;9.80;100.00
41898;BME280;27576;53.366;-1.498;2023-04-16T07:19:29;101091.84;;;9.85;100.00
41898;BME280;27576;53.366;-1.498;2023-04-16T07:21:59;101070.03;;;9.75;100.00
41898;BME280;27576;53.366;-1.498;2023-04-16T07:24:25;101101.66;;;9.97;100.00
41898;BME280;27576;53.366;-1.498;2023-04-16T07:26:50;101091.97;;;9.90;100.00
41898;BME280;27576;53.366;-1.498;2023-04-16T07:29:15;101067.38;;;9.74;100.00
41898;BME280;27576;53.366;-1.498;2023-04-16T07:31:41;101076.31;;;9.85;100.00
41898;BME280;27576;53.366;-1.498;2023-04-16T07:34:06;101090.19;;;9.87;100.00
41898;BME280;27576;53.366;-1.498;2023-04-16T07:36:32;101084.91;;;9.82;100.00
41898;BME280;27576;53.366;-1.498;2023-04-16T07:38:57;101080.53;;;9.81;100.00
41898;BME280;27576;53.366;-1.498;2023-04-16T07:41:22;101094.44;;;9.85;100.00
41898;BME280;27576;53.366;-1.498;2023-04-16T07:43:48;101104.34;;;10.01;100.00
41898;BME280;27576;53.366;-1.498;2023-04-16T07:46:13;101076.75;;;10.02;100.00
41898;BME280;27576;53.366;-1.498;2023-04-16T07:48:39;101088.44;;;10.21;100.00
41898;BME280;27576;53.366;-1.498;2023-04-16T07:51:04;101115.19;;;10.53;100.00
41898;BME280;27576;53.366;-1.498;2023-04-16T07:53:30;101069.25;;;10.46;100.00
41898;BME280;27576;53.366;-1.498;2023-04-16T07:55:55;101120.03;;;10.75;100.00
41898;BME280;27576;53.366;-1.498;2023-04-16T07:58:20;101112.84;;;10.62;98.02
41898;BME280;27576;53.366;-1.498;2023-04-16T08:00:46;101114.56;;;10.62;100.00
41898;BME280;27576;53.366;-1.498;2023-04-16T08:03:11;101100.63;;;10.58;97.70
41898;BME280;27576;53.366;-1.498;2023-04-16T08:05:37;101093.75;;;10.60;96.62
41898;BME280;27576;53.366;-1.498;2023-04-16T08:08:02;101118.38;;;10.77;95.58
41898;BME280;27576;53.366;-1.498;2023-04-16T08:10:27;101126.94;;;10.75;92.31
41898;BME280;27576;53.366;-1.498;2023-04-16T08:12:53;101118.00;;;10.62;92.06
41898;BME280;27576;53.366;-1.498;2023-04-16T08:15:18;101127.63;;;10.68;92.79
41898;BME280;27576;53.366;-1.498;2023-04-16T08:17:44;101109.97;;;10.51;90.79
41898;BME280;27576;53.366;-1.498;2023-04-16T08:20:10;101131.94;;;10.66;89.79
41898;BME280;27576;53.366;-1.498;2023-04-16T08:22:35;101110.63;;;10.43;87.16
41898;BME280;27576;53.366;-1.498;2023-04-16T08:25:02;101116.78;;;10.48;88.25
41898;BME280;27576;53.366;-1.498;2023-04-16T08:27:27;101144.94;;;10.69;88.78
41898;BME280;27576;53.366;-1.498;2023-04-16T08:29:54;101100.41;;;10.49;84.67
41898;BME280;27576;53.366;-1.498;2023-04-16T08:32:19;101099.59;;;10.50;86.22
41898;BME280;27576;53.366;-1.498;2023-04-16T08:34:45;101110.13;;;10.57;84.96
41898;BME280;27576;53.366;-1.498;2023-04-16T08:37:10;101122.25;;;10.59;83.87
41898;BME280;27576;53.366;-1.498;2023-04-16T08:39:35;101126.66;;;10.63;85.22
41898;BME280;27576;53.366;-1.498;2023-04-16T08:42:04;101140.69;;;10.71;83.62
41898;BME280;27576;53.366;-1.498;2023-04-16T08:44:36;101149.50;;;10.77;85.42
41898;BME280;27576;53.366;-1.498;2023-04-16T08:47:07;101149.25;;;10.68;84.64
41898;BME280;27576;53.366;-1.498;2023-04-16T08:49:35;101137.13;;;10.67;86.05
41898;BME280;27576;53.366;-1.498;2023-04-16T08:52:03;101109.09;;;10.51;85.99
41898;BME280;27576;53.366;-1.498;2023-04-16T08:54:44;101138.88;;;10.68;86.82
41898;BME280;27576;53.366;-1.498;2023-04-16T08:57:17;101117.84;;;10.54;86.04
41898;BME280;27576;53.366;-1.498;2023-04-16T08:59:45;101146.91;;;10.77;88.14
41898;BME280;27576;53.366;-1.498;2023-04-16T09:02:12;101104.91;;;10.56;86.95
41898;BME280;27576;53.366;-1.498;2023-04-16T09:04:38;101148.03;;;10.89;88.43
41898;BME280;27576;53.366;-1.498;2023-04-16T09:07:07;101117.81;;;10.91;90.15
41898;BME280;27576;53.366;-1.498;2023-04-16T09:09:32;101120.56;;;10.97;87.17
41898;BME280;27576;53.366;-1.498;2023-04-16T09:11:58;101139.94;;;11.14;86.67
41898;BME280;27576;53.366;-1.498;2023-04-16T09:14:24;101151.44;;;11.24;86.05
41898;BME280;27576;53.366;-1.498;2023-04-16T09:16:52;101140.75;;;11.12;86.34
41898;BME280;27576;53.366;-1.498;2023-04-16T09:19:17;101154.97;;;11.29;87.36
41898;BME280;27576;53.366;-1.498;2023-04-16T09:21:45;101163.84;;;11.39;87.24
41898;BME280;27576;53.366;-1.498;2023-04-16T09:24:11;101159.50;;;11.38;87.65
41898;BME280;27576;53.366;-1.498;2023-04-16T09:26:36;101162.16;;;11.41;89.65
41898;BME280;27576;53.366;-1.498;2023-04-16T09:29:03;101163.06;;;11.43;88.19
41898;BME280;27576;53.366;-1.498;2023-04-16T09:31:28;101166.44;;;11.39;88.19
41898;BME280;27576;53.366;-1.498;2023-04-16T09:34:02;101160.41;;;11.40;88.46
41898;BME280;27576;53.366;-1.498;2023-04-16T09:36:28;101167.09;;;11.30;89.57
41898;BME280;27576;53.366;-1.498;2023-04-16T09:38:54;101161.69;;;11.19;91.21
41898;BME280;27576;53.366;-1.498;2023-04-16T09:41:24;101170.41;;;11.23;92.20
41898;BME280;27576;53.366;-1.498;2023-04-16T09:44:02;101160.69;;;11.14;92.07
41898;BME280;27576;53.366;-1.498;2023-04-16T09:46:37;101162.44;;;11.15;92.97
41898;BME280;27576;53.366;-1.498;2023-04-16T09:49:16;101144.94;;;11.05;93.85
41898;BME280;27576;53.366;-1.498;2023-04-16T09:51:47;101159.31;;;11.28;93.83
41898;BME280;27576;53.366;-1.498;2023-04-16T09:54:15;101164.41;;;11.25;94.06
41898;BME280;27576;53.366;-1.498;2023-04-16T09:56:42;101153.44;;;11.37;93.28
41898;BME280;27576;53.366;-1.498;2023-04-16T09:59:15;101163.13;;;11.46;93.94
41898;BME280;27576;53.366;-1.498;2023-04-16T10:01:41;101159.81;;;11.51;94.69
41898;BME280;27576;53.366;-1.498;2023-04-16T10:04:06;101138.09;;;11.48;94.40
41898;BME280;27576;53.366;-1.498;2023-04-16T10:06:32;101130.41;;;11.52;92.92
41898;BME280;27576;53.366;-1.498;2023-04-16T10:08:57;101156.81;;;11.75;94.20
41898;BME280;27576;53.366;-1.498;2023-04-16T10:11:23;101143.38;;;11.95;95.19
41898;BME280;27576;53.366;-1.498;2023-04-16T10:13:49;101156.91;;;12.24;91.87
41898;BME280;27576;53.366;-1.498;2023-04-16T10:16:15;101156.13;;;12.29;92.42
41898;BME280;27576;53.366;-1.498;2023-04-16T10:18:43;101158.06;;;12.40;92.22
41898;BME280;27576;53.366;-1.498;2023-04-16T10:21:09;101173.72;;;12.43;91.58
41898;BME280;27576;53.366;-1.498;2023-04-16T10:23:40;101147.38;;;12.24;91.06
41898;BME280;27576;53.366;-1.498;2023-04-16T10:26:06;101150.00;;;12.26;93.07
41898;BME280;27576;53.366;-1.498;2023-04-16T10:28:31;101134.97;;;12.08;92.37
41898;BME280;27576;53.366;-1.498;2023-04-16T10:31:01;101170.69;;;12.18;92.96
41898;BME280;27576;53.366;-1.498;2023-04-16T10:33:29;101163.63;;;12.14;92.99
41898;BME280;27576;53.366;-1.498;2023-04-16T10:36:12;101162.63;;;12.06;92.00
41898;BME280;27576;53.366;-1.498;2023-04-16T10:38:40;101181.34;;;11.90;94.00
41898;BME280;27576;53.366;-1.498;2023-04-16T10:41:06;101174.34;;;11.86;94.90
41898;BME280;27576;53.366;-1.498;2023-04-16T10:43:38;101183.09;;;11.89;95.15
41898;BME280;27576;53.366;-1.498;2023-04-16T10:46:18;101173.19;;;11.71;94.99
41898;BME280;27576;53.366;-1.498;2023-04-16T10:48:45;101182.75;;;11.74;95.98
41898;BME280;27576;53.366;-1.498;2023-04-16T10:51:33;101182.81;;;11.77;94.97
41898;BME280;27576;53.366;-1.498;2023-04-16T10:56:34;101163.63;;;11.70;96.36
41898;BME280;27576;53.366;-1.498;2023-04-16T10:59:02;101169.66;;;11.69;97.76
41898;BME280;27576;53.366;-1.498;2023-04-16T11:01:36;101167.31;;;11.80;98.61
41898;BME280;27576;53.366;-1.498;2023-04-16T11:09:56;101167.56;;;11.92;98.48
41898;BME280;27576;53.366;-1.498;2023-04-16T11:12:37;101174.59;;;11.98;97.89
41898;BME280;27576;53.366;-1.498;2023-04-16T11:17:52;101154.03;;;12.09;96.80
41898;BME280;27576;53.366;-1.498;2023-04-16T11:20:19;101177.09;;;12.39;96.50
41898;BME280;27576;53.366;-1.498;2023-04-16T11:22:45;101181.78;;;12.58;96.47
41898;BME280;27576;53.366;-1.498;2023-04-16T11:25:11;101165.38;;;12.64;94.71
41898;BME280;27576;53.366;-1.498;2023-04-16T11:27:36;101162.81;;;12.65;94.63
41898;BME280;27576;53.366;-1.498;2023-04-16T11:30:07;101161.16;;;12.70;92.57
41898;BME280;27576;53.366;-1.498;2023-04-16T11:32:37;101176.22;;;12.90;93.45
41898;BME280;27576;53.366;-1.498;2023-04-16T11:35:14;101179.19;;;13.16;93.56
41898;BME280;27576;53.366;-1.498;2023-04-16T11:37:40;101166.59;;;13.40;93.91
41898;BME280;27576;53.366;-1.498;2023-04-16T11:40:07;101166.69;;;13.49;91.35
41898;BME280;27576;53.366;-1.498;2023-04-16T11:42:34;101164.13;;;13.54;89.79
41898;BME280;27576;53.366;-1.498;2023-04-16T11:45:06;101141.47;;;13.45;93.21
41898;BME280;27576;53.366;-1.498;2023-04-16T11:47:41;101163.47;;;13.70;91.92
41898;BME280;27576;53.366;-1.498;2023-04-16T11:52:41;101160.34;;;14.02;88.97
41898;BME280;27576;53.366;-1.498;2023-04-16T11:55:06;101138.50;;;13.89;88.76
41898;BME280;27576;53.366;-1.498;2023-04-16T11:57:32;101161.00;;;13.83;87.88
41898;BME280;27576;53.366;-1.498;2023-04-16T11:59:59;101125.94;;;13.53;89.96
41898;BME280;27576;53.366;-1.498;2023-04-16T12:05:00;101115.84;;;13.14;89.41
41898;BME280;27576;53.366;-1.498;2023-04-16T12:07:26;101140.03;;;13.05;90.64
41898;BME280;27576;53.366;-1.498;2023-04-16T12:10:03;101152.25;;;13.11;92.08
41898;BME280;27576;53.366;-1.498;2023-04-16T12:12:30;101142.63;;;13.07;90.90
41898;BME280;27576;53.366;-1.498;2023-04-16T12:14:56;101144.97;;;12.88;91.96
41898;BME280;27576;53.366;-1.498;2023-04-16T12:17:23;101162.47;;;12.97;93.34
41898;BME280;27576;53.366;-1.498;2023-04-16T12:20:00;101165.06;;;12.98;94.54
41898;BME280;27576;53.366;-1.498;2023-04-16T12:22:30;101155.44;;;12.93;93.90
41898;BME280;27576;53.366;-1.498;2023-04-16T12:25:22;101157.91;;;12.84;93.61
41898;BME280;27576;53.366;-1.498;2023-04-16T12:27:50;101163.84;;;12.76;94.50
41898;BME280;27576;53.366;-1.498;2023-04-16T12:30:21;101166.38;;;12.70;95.48
41898;BME280;27576;53.366;-1.498;2023-04-16T12:32:48;101154.09;;;12.62;95.20
41898;BME280;27576;53.366;-1.498;2023-04-16T12:35:29;101146.91;;;12.47;94.77
41898;BME280;27576;53.366;-1.498;2023-04-16T12:37:54;101131.91;;;12.31;95.89
41898;BME280;27576;53.366;-1.498;2023-04-16T12:40:19;101139.59;;;12.26;96.48
41898;BME280;27576;53.366;-1.498;2023-04-16T12:42:45;101169.31;;;12.39;96.88
41898;BME280;27576;53.366;-1.498;2023-04-16T12:45:10;101154.28;;;12.22;97.69
41898;BME280;27576;53.366;-1.498;2023-04-16T12:47:36;101162.97;;;12.24;98.75
41898;BME280;27576;53.366;-1.498;2023-04-16T12:50:01;101172.50;;;12.25;97.86
41898;BME280;27576;53.366;-1.498;2023-04-16T12:52:27;101169.75;;;12.15;98.97
41898;BME280;27576;53.366;-1.498;2023-04-16T12:54:52;101144.28;;;11.97;100.00